Adolino Bedin Regional Airport


Codes: SBSO/SMT
Name: Adolino Bedin Regional Airport
City: Sorriso
Country: Brazil
Elevation: 1266 ft.

Photos at Adolino Bedin Regional Airport


   Photos courtesy of SpottingLog. You can add your own sightings and photos by signing up for a free trial today.



No photos found.

Weather at Adolino Bedin Regional Airport


Time (UTC)DescriptionTempratureWindCloud coverageVisibilityPressureHumidity
19-Apr-2024 03:00Overcast Clouds23°C4 mph, S100%10000m1012hPa96%
19-Apr-2024 06:00Overcast Clouds22°C2 mph, S99%10000m1012hPa97%
19-Apr-2024 09:00Overcast Clouds22°C2 mph, SE87%10000m1011hPa98%
19-Apr-2024 12:00Broken Clouds25°C4 mph, SE73%10000m1013hPa87%
19-Apr-2024 15:00Broken Clouds31°C2 mph, SE69%10000m1012hPa58%
19-Apr-2024 18:00Light Rain28°C4 mph, SW84%10000m1009hPa75%
19-Apr-2024 21:00Light Rain26°C2 mph, S100%10000m1009hPa86%
20-Apr-2024 00:00Overcast Clouds24°C2 mph, SE100%10000m1011hPa90%
20-Apr-2024 03:00Light Rain22°C4 mph, E100%10000m1013hPa98%
20-Apr-2024 06:00Light Rain22°C2 mph, NE100%10000m1011hPa98%
20-Apr-2024 09:00Moderate Rain22°C2 mph, NE100%10000m1012hPa99%
20-Apr-2024 12:00Light Rain23°C2 mph, NE100%10000m1014hPa96%
20-Apr-2024 15:00Overcast Clouds29°C2 mph, NE100%10000m1013hPa70%
20-Apr-2024 18:00Light Rain29°C4 mph, SW99%10000m1010hPa74%
20-Apr-2024 21:00Light Rain25°C2 mph, SE100%10000m1009hPa92%
21-Apr-2024 00:00Overcast Clouds23°C4 mph, SE99%10000m1012hPa95%
21-Apr-2024 03:00Overcast Clouds23°C4 mph, E100%10000m1012hPa96%
21-Apr-2024 06:00Moderate Rain22°C2 mph, E100%10000m1011hPa99%
21-Apr-2024 09:00Moderate Rain22°C2 mph, NE100%10000m1012hPa99%
21-Apr-2024 12:00Light Rain22°C2 mph, NE100%10000m1014hPa99%
21-Apr-2024 15:00Light Rain29°C4 mph, NW97%10000m1013hPa70%
21-Apr-2024 18:00Moderate Rain27°C2 mph, NE98%10000m1010hPa85%
21-Apr-2024 21:00Moderate Rain24°C2 mph, NE100%10000m1009hPa95%
22-Apr-2024 00:00Overcast Clouds23°C2 mph, NE100%10000m1011hPa97%
22-Apr-2024 03:00Overcast Clouds22°C2 mph, NE100%10000m1012hPa98%
22-Apr-2024 06:00Overcast Clouds22°C2 mph, NE100%10000m1011hPa98%
22-Apr-2024 09:00Overcast Clouds21°C2 mph, NE100%10000m1011hPa99%
22-Apr-2024 12:00Overcast Clouds24°C2 mph, NE96%10000m1013hPa90%
22-Apr-2024 15:00Scattered Clouds30°C2 mph, N30%10000m1012hPa61%
22-Apr-2024 18:00Light Rain31°C2 mph, NW29%10000m1008hPa60%
22-Apr-2024 21:00Light Rain25°C2 mph, NW88%10000m1008hPa89%
23-Apr-2024 00:00Light Rain23°C2 mph, SW93%10000m1011hPa93%
23-Apr-2024 03:00Light Rain22°C0 mph, SE93%10000m1012hPa96%
23-Apr-2024 06:00Light Rain23°C0 mph, NW85%10000m1011hPa97%
23-Apr-2024 09:00Light Rain22°C0 mph, SE57%10000m1012hPa98%
23-Apr-2024 12:00Light Rain24°C2 mph, N70%10000m1014hPa93%
23-Apr-2024 15:00Light Rain30°C4 mph, NE8%10000m1012hPa63%
23-Apr-2024 18:00Light Rain31°C4 mph, W10%10000m1009hPa62%
23-Apr-2024 21:00Light Rain26°C4 mph, SW81%10000m1009hPa85%
24-Apr-2024 00:00Light Rain23°C4 mph, S54%10000m1012hPa94%